Lady Mary — WCY4834 — position and weather

sailwx.info

Track history (hours):
 
Tides and Currents Weather Stations Pressure Air Temp Water Temp Dewpoint Dewpoint Depression Visibility Wind Speed Wind Dir Waves Ship Positions

Lady Mary

Owner: BLACKMAN, JOHN H, SEATTLE, WA. More information available from US FCC via Universal Licensing System and Coast Guard Vessel Documentation Center.

Last reported at 2016-Sep-27 19:31 UTC. Time now 2016-Sep-27 22:20 UTC.
Position N 47°40' W 122°13'.

Length 26 m.

Type: Passenger vessel. MMSI: 367013060.

Date/timePositionNaut miles runAvg speedWind from/ knotsBaromVisibWave heightAir tempDewpointWater temp
2016-Sep-27 19:31N 47°40' W 122°13'0 0.0
2016-Sep-27 14:31N 47°40' W 122°13'0 0.0
2016-Sep-27 13:32N 47°40' W 122°13'0 0.0
2016-Sep-27 10:31N 47°40' W 122°13'0 0.0
2016-Sep-27 00:31N 47°40' W 122°13'0 0.0
2016-Sep-26 20:31N 47°40' W 122°13'0 0.0
2016-Sep-26 19:32N 47°40' W 122°13'0 0.0
2016-Sep-26 15:31N 47°40' W 122°13'0 0.0
2016-Sep-26 13:18N 47°40' W 122°13'0 0.0
2016-Sep-26 11:31N 47°40' W 122°13'0 0.0
2016-Sep-26 08:33N 47°40' W 122°13'4 0.6
2016-Sep-26 02:32N 47°39' W 122°18'2 1.9
2016-Sep-26 01:33N 47°39' W 122°21'1 0.8
2016-Sep-26 00:33N 47°38' W 122°20'0 0.1
2016-Sep-25 21:33N 47°38' W 122°20'6 1.5
2016-Sep-25 17:33N 47°40' W 122°13'0 0.0
2016-Sep-25 16:33N 47°40' W 122°13'0 0.0
2016-Sep-25 15:33N 47°40' W 122°13'0 0.0
2016-Sep-25 14:33N 47°40' W 122°13'0 0.0
2016-Sep-25 12:33N 47°40' W 122°13'0 0.0
2016-Sep-25 11:33N 47°40' W 122°13'0 0.0
2016-Sep-25 10:33N 47°40' W 122°13'0 0.0
2016-Sep-25 09:33N 47°40' W 122°13'0 0.0
2016-Sep-25 07:33N 47°40' W 122°13'0 0.0
2016-Sep-25 04:33N 47°40' W 122°13'0 0.0
2016-Sep-25 00:33N 47°40' W 122°13'6 3.0
2016-Sep-24 22:33N 47°39' W 122°21'1 1.2
2016-Sep-24 21:33N 47°39' W 122°23'1 0.5
2016-Sep-24 19:33N 47°39' W 122°22'1 1.0
2016-Sep-24 18:33N 47°39' W 122°23'1 0.8
2016-Sep-24 17:33N 47°40' W 122°24'2 1.8
2016-Sep-24 16:33N 47°40' W 122°27'5 2.6
2016-Sep-24 14:33N 47°36' W 122°20'0 0.0
2016-Sep-24 12:33N 47°36' W 122°20'0 0.0
2016-Sep-24 10:33N 47°36' W 122°20'0 0.0
2016-Sep-24 09:33N 47°36' W 122°20'20 3.4
2016-Sep-24 03:33N 47°16' W 122°27'2 2.1
2016-Sep-24 02:33N 47°18' W 122°28'3 2.8
2016-Sep-24 01:33N 47°16' W 122°26'1 1.0
2016-Sep-24 00:33N 47°15' W 122°26'22 4.4
2016-Sep-23 19:33N 47°36' W 122°20'0 0.0
2016-Sep-23 02:26N 47°36' W 122°20'0 0.0
2016-Sep-23 01:32N 47°36' W 122°20'0 0.0
2016-Sep-23 00:33N 47°36' W 122°20'0 0.0
2016-Sep-22 23:34N 47°36' W 122°20'4 1.3
2016-Sep-22 20:33N 47°39' W 122°16'3 0.4
2016-Sep-22 12:34N 47°40' W 122°13'0 0.0
2016-Sep-22 04:34N 47°40' W 122°13'0 0.0
2016-Sep-22 03:33N 47°40' W 122°13'0 0.0
2016-Sep-22 00:33N 47°40' W 122°13'0 0.0
2016-Sep-21 23:33N 47°40' W 122°13'0 0.0
2016-Sep-21 22:33N 47°40' W 122°13'0 0.0
2016-Sep-21 19:33N 47°40' W 122°13'0 0.0
2016-Sep-21 16:34N 47°40' W 122°13'0 0.0
2016-Sep-21 09:33N 47°40' W 122°13'0 0.0
2016-Sep-21 08:34N 47°40' W 122°13'0 0.0
2016-Sep-21 05:33N 47°40' W 122°13'0 0.0
2016-Sep-21 03:33N 47°40' W 122°13'0 0.0
2016-Sep-21 02:34N 47°40' W 122°13'0 0.0
2016-Sep-20 17:33N 47°40' W 122°13'0 0.0
2016-Sep-20 14:34N 47°40' W 122°13'0 0.0
2016-Sep-20 13:34N 47°40' W 122°13'0 0.0
2016-Sep-20 10:33N 47°40' W 122°13'0 0.0
2016-Sep-20 08:34N 47°40' W 122°13'0 0.0
2016-Sep-20 07:33N 47°40' W 122°13'0 0.0
2016-Sep-20 06:34N 47°40' W 122°13'0 0.0
2016-Sep-20 02:34N 47°40' W 122°13'0 0.0
2016-Sep-19 23:34N 47°40' W 122°13'0 0.0
2016-Sep-19 19:33N 47°40' W 122°13'0 0.0
2016-Sep-19 18:33N 47°40' W 122°13'0 0.0
2016-Sep-19 16:33N 47°40' W 122°13'0 0.0
2016-Sep-19 14:34N 47°40' W 122°13'0 0.0
2016-Sep-19 13:33N 47°40' W 122°13'0 0.0
2016-Sep-19 12:33N 47°40' W 122°13'0 0.0
2016-Sep-19 11:33N 47°40' W 122°13'0 0.0
2016-Sep-19 09:33N 47°40' W 122°13'0 0.0
2016-Sep-19 07:34N 47°40' W 122°13'0 0.0
2016-Sep-19 06:33N 47°40' W 122°13'0 0.0
2016-Sep-19 03:34N 47°40' W 122°13'0 0.0
2016-Sep-19 02:34N 47°40' W 122°13'0 0.0
2016-Sep-19 00:34N 47°40' W 122°13'1 0.3
2016-Sep-18 19:33N 47°39' W 122°13'1 0.4
2016-Sep-18 15:33N 47°40' W 122°13'0 0.0
2016-Sep-18 14:28N 47°40' W 122°13'0 0.0
2016-Sep-18 10:28N 47°40' W 122°13'0 0.0
2016-Sep-18 09:31N 47°40' W 122°13'4 0.6
2016-Sep-18 02:31N 47°39' W 122°18'0 0.0
2016-Sep-18 01:32N 47°39' W 122°18'0 0.0
2016-Sep-18 00:33N 47°39' W 122°18'1 0.5
2016-Sep-17 22:31N 47°39' W 122°19'0 0.0
2016-Sep-17 21:32N 47°39' W 122°19'1 1.1
2016-Sep-17 20:33N 47°39' W 122°18'  
Track history (hours):
 
Tides and Currents Weather Stations Pressure Air Temp Water Temp Dewpoint Dewpoint Depression Visibility Wind Speed Wind Dir Waves Ship Positions

Lady Mary

Owner: BLACKMAN, JOHN H, SEATTLE, WA. More information available from US FCC via Universal Licensing System and Coast Guard Vessel Documentation Center.

Last reported at 2016-Sep-27 19:31 UTC. Time now 2016-Sep-27 22:20 UTC.
Position N 47°40' W 122°13'.

Length 26 m.

Type: Passenger vessel. MMSI: 367013060.

Date/timePositionNaut miles runAvg speedWind from/ knotsBaromVisibWave heightAir tempDewpointWater temp
2016-Sep-27 19:31N 47°40' W 122°13'0 0.0
2016-Sep-27 14:31N 47°40' W 122°13'0 0.0
2016-Sep-27 13:32N 47°40' W 122°13'0 0.0
2016-Sep-27 10:31N 47°40' W 122°13'0 0.0
2016-Sep-27 00:31N 47°40' W 122°13'0 0.0
2016-Sep-26 20:31N 47°40' W 122°13'0 0.0
2016-Sep-26 19:32N 47°40' W 122°13'0 0.0
2016-Sep-26 15:31N 47°40' W 122°13'0 0.0
2016-Sep-26 13:18N 47°40' W 122°13'0 0.0
2016-Sep-26 11:31N 47°40' W 122°13'0 0.0
2016-Sep-26 08:33N 47°40' W 122°13'4 0.6
2016-Sep-26 02:32N 47°39' W 122°18'2 1.9
2016-Sep-26 01:33N 47°39' W 122°21'1 0.8
2016-Sep-26 00:33N 47°38' W 122°20'0 0.1
2016-Sep-25 21:33N 47°38' W 122°20'6 1.5
2016-Sep-25 17:33N 47°40' W 122°13'0 0.0
2016-Sep-25 16:33N 47°40' W 122°13'0 0.0
2016-Sep-25 15:33N 47°40' W 122°13'0 0.0
2016-Sep-25 14:33N 47°40' W 122°13'0 0.0
2016-Sep-25 12:33N 47°40' W 122°13'0 0.0
2016-Sep-25 11:33N 47°40' W 122°13'0 0.0
2016-Sep-25 10:33N 47°40' W 122°13'0 0.0
2016-Sep-25 09:33N 47°40' W 122°13'0 0.0
2016-Sep-25 07:33N 47°40' W 122°13'0 0.0
2016-Sep-25 04:33N 47°40' W 122°13'0 0.0
2016-Sep-25 00:33N 47°40' W 122°13'6 3.0
2016-Sep-24 22:33N 47°39' W 122°21'1 1.2
2016-Sep-24 21:33N 47°39' W 122°23'1 0.5
2016-Sep-24 19:33N 47°39' W 122°22'1 1.0
2016-Sep-24 18:33N 47°39' W 122°23'1 0.8
2016-Sep-24 17:33N 47°40' W 122°24'2 1.8
2016-Sep-24 16:33N 47°40' W 122°27'5 2.6
2016-Sep-24 14:33N 47°36' W 122°20'0 0.0
2016-Sep-24 12:33N 47°36' W 122°20'0 0.0
2016-Sep-24 10:33N 47°36' W 122°20'0 0.0
2016-Sep-24 09:33N 47°36' W 122°20'20 3.4
2016-Sep-24 03:33N 47°16' W 122°27'2 2.1
2016-Sep-24 02:33N 47°18' W 122°28'3 2.8
2016-Sep-24 01:33N 47°16' W 122°26'1 1.0
2016-Sep-24 00:33N 47°15' W 122°26'22 4.4
2016-Sep-23 19:33N 47°36' W 122°20'0 0.0
2016-Sep-23 02:26N 47°36' W 122°20'0 0.0
2016-Sep-23 01:32N 47°36' W 122°20'0 0.0
2016-Sep-23 00:33N 47°36' W 122°20'0 0.0
2016-Sep-22 23:34N 47°36' W 122°20'4 1.3
2016-Sep-22 20:33N 47°39' W 122°16'3 0.4
2016-Sep-22 12:34N 47°40' W 122°13'0 0.0
2016-Sep-22 04:34N 47°40' W 122°13'0 0.0
2016-Sep-22 03:33N 47°40' W 122°13'0 0.0
2016-Sep-22 00:33N 47°40' W 122°13'0 0.0
2016-Sep-21 23:33N 47°40' W 122°13'0 0.0
2016-Sep-21 22:33N 47°40' W 122°13'0 0.0
2016-Sep-21 19:33N 47°40' W 122°13'0 0.0
2016-Sep-21 16:34N 47°40' W 122°13'0 0.0
2016-Sep-21 09:33N 47°40' W 122°13'0 0.0
2016-Sep-21 08:34N 47°40' W 122°13'0 0.0
2016-Sep-21 05:33N 47°40' W 122°13'0 0.0
2016-Sep-21 03:33N 47°40' W 122°13'0 0.0
2016-Sep-21 02:34N 47°40' W 122°13'0 0.0
2016-Sep-20 17:33N 47°40' W 122°13'0 0.0
2016-Sep-20 14:34N 47°40' W 122°13'0 0.0
2016-Sep-20 13:34N 47°40' W 122°13'0 0.0
2016-Sep-20 10:33N 47°40' W 122°13'0 0.0
2016-Sep-20 08:34N 47°40' W 122°13'0 0.0
2016-Sep-20 07:33N 47°40' W 122°13'0 0.0
2016-Sep-20 06:34N 47°40' W 122°13'0 0.0
2016-Sep-20 02:34N 47°40' W 122°13'0 0.0
2016-Sep-19 23:34N 47°40' W 122°13'0 0.0
2016-Sep-19 19:33N 47°40' W 122°13'0 0.0
2016-Sep-19 18:33N 47°40' W 122°13'0 0.0
2016-Sep-19 16:33N 47°40' W 122°13'0 0.0
2016-Sep-19 14:34N 47°40' W 122°13'0 0.0
2016-Sep-19 13:33N 47°40' W 122°13'0 0.0
2016-Sep-19 12:33N 47°40' W 122°13'0 0.0
2016-Sep-19 11:33N 47°40' W 122°13'0 0.0
2016-Sep-19 09:33N 47°40' W 122°13'0 0.0
2016-Sep-19 07:34N 47°40' W 122°13'0 0.0
2016-Sep-19 06:33N 47°40' W 122°13'0 0.0
2016-Sep-19 03:34N 47°40' W 122°13'0 0.0
2016-Sep-19 02:34N 47°40' W 122°13'0 0.0
2016-Sep-19 00:34N 47°40' W 122°13'1 0.3
2016-Sep-18 19:33N 47°39' W 122°13'1 0.4
2016-Sep-18 15:33N 47°40' W 122°13'0 0.0
2016-Sep-18 14:28N 47°40' W 122°13'0 0.0
2016-Sep-18 10:28N 47°40' W 122°13'0 0.0
2016-Sep-18 09:31N 47°40' W 122°13'4 0.6
2016-Sep-18 02:31N 47°39' W 122°18'0 0.0
2016-Sep-18 01:32N 47°39' W 122°18'0 0.0
2016-Sep-18 00:33N 47°39' W 122°18'1 0.5
2016-Sep-17 22:31N 47°39' W 122°19'0 0.0
2016-Sep-17 21:32N 47°39' W 122°19'1 1.1
2016-Sep-17 20:33N 47°39' W 122°18'  

Dump ship's entire track history